Time;durP1;ratioP1;P1;durP2;ratioP2;P2;SDS_P1;SDS_P2;PMS_P1;PMS_P2;Temp;Humidity;BMP_temperature;BMP_pressure;BME280_temperature;BME280_humidity;BME280_pressure;Samples;Min_cycle;Max_cycle;Signal;HPM_P1;HPM_P2
2021/04/24 00:02:47;;;;;;;10.60;2.63;;;5.10;99.90;;;;;;12400228;28;20173;-79
2021/04/24 00:08:48;;;;;;;7.03;2.65;;;5.10;99.90;;;;;;12388233;28;20162;-79
2021/04/24 00:14:50;;;;;;;10.13;3.03;;;5.10;99.90;;;;;;12378471;28;20327;-79
2021/04/24 00:20:52;;;;;;;10.60;3.35;;;4.80;99.90;;;;;;12380251;28;20046;-79
2021/04/24 00:26:53;;;;;;;8.65;3.25;;;4.80;99.90;;;;;;12400744;28;20050;-80
2021/04/24 00:32:55;;;;;;;7.53;2.65;;;4.80;99.90;;;;;;12382023;28;20042;-80
2021/04/24 00:38:57;;;;;;;4.97;2.50;;;4.70;99.90;;;;;;12380770;28;20053;-80
2021/04/24 00:44:59;;;;;;;8.70;3.13;;;4.70;99.90;;;;;;12406904;28;20069;-79
2021/04/24 00:51:01;;;;;;;7.57;2.90;;;4.80;99.90;;;;;;12385706;28;20558;-79
2021/04/24 00:57:03;;;;;;;8.60;3.00;;;5.00;99.90;;;;;;12381862;28;20053;-79
2021/04/24 01:03:04;;;;;;;7.40;3.00;;;5.00;99.90;;;;;;12385652;28;20114;-79
2021/04/24 01:09:06;;;;;;;9.27;3.45;;;5.00;99.90;;;;;;12384030;28;20050;-80
2021/04/24 01:15:08;;;;;;;9.05;3.17;;;5.20;99.90;;;;;;12390683;28;20054;-79
2021/04/24 01:21:12;;;;;;;9.80;3.63;;;5.30;99.90;;;;;;12401230;28;20141;-79
2021/04/24 01:27:14;;;;;;;7.13;3.05;;;5.40;99.90;;;;;;12408244;28;20546;-79
2021/04/24 01:33:16;;;;;;;9.40;3.55;;;5.30;99.90;;;;;;12391953;28;20115;-79
2021/04/24 01:39:17;;;;;;;9.30;4.40;;;5.50;99.90;;;;;;12394048;28;20167;-80
2021/04/24 01:45:20;;;;;;;13.20;4.53;;;5.70;99.90;;;;;;12398032;28;20558;-79
2021/04/24 01:51:22;;;;;;;13.20;4.90;;;5.70;99.90;;;;;;12383619;28;20506;-79
2021/04/24 01:57:24;;;;;;;12.73;5.28;;;5.60;99.90;;;;;;12382785;28;20081;-80
2021/04/24 02:03:25;;;;;;;12.82;5.30;;;5.70;99.90;;;;;;12382814;28;20438;-79
2021/04/24 02:09:27;;;;;;;9.73;4.50;;;5.80;99.90;;;;;;12381924;28;20173;-79
2021/04/24 02:15:28;;;;;;;10.70;4.90;;;5.70;99.90;;;;;;12391604;28;20099;-79
2021/04/24 02:21:29;;;;;;;13.00;5.20;;;5.60;99.90;;;;;;12382200;28;20569;-79
2021/04/24 02:27:31;;;;;;;16.85;6.65;;;5.70;99.90;;;;;;12391354;28;20196;-78
2021/04/24 02:33:32;;;;;;;12.07;5.70;;;5.60;99.90;;;;;;12383667;28;20043;-79
2021/04/24 02:39:36;;;;;;;12.02;5.25;;;5.80;99.90;;;;;;12394001;28;20054;-80
2021/04/24 02:45:38;;;;;;;10.57;5.38;;;5.80;99.90;;;;;;12389210;28;20155;-80
2021/04/24 02:51:39;;;;;;;12.65;4.90;;;5.70;99.90;;;;;;12394012;28;20116;-79
2021/04/24 02:57:42;;;;;;;14.10;5.13;;;5.70;99.90;;;;;;12392172;28;20178;-79
2021/04/24 03:03:43;;;;;;;13.23;5.53;;;5.80;99.90;;;;;;12387138;28;21135;-79
2021/04/24 03:09:45;;;;;;;13.65;5.30;;;5.90;99.90;;;;;;12395477;28;20383;-79
2021/04/24 03:15:46;;;;;;;10.20;5.38;;;5.90;99.90;;;;;;12386656;28;21387;-79
2021/04/24 03:21:48;;;;;;;11.07;5.32;;;5.80;99.90;;;;;;12392506;28;20050;-79
2021/04/24 03:27:49;;;;;;;14.20;5.55;;;5.60;99.90;;;;;;12388287;28;20081;-80
2021/04/24 03:33:50;;;;;;;12.68;5.38;;;5.50;99.90;;;;;;12397385;28;20571;-79
2021/04/24 03:39:52;;;;;;;10.60;4.82;;;5.30;99.90;;;;;;12396762;28;20053;-80
2021/04/24 03:45:54;;;;;;;11.48;4.82;;;5.40;99.90;;;;;;12385506;28;20449;-80
2021/04/24 03:51:55;;;;;;;16.05;5.88;;;5.30;99.90;;;;;;12407354;28;20046;-79
2021/04/24 03:57:57;;;;;;;14.40;6.00;;;5.40;99.90;;;;;;12394073;28;20069;-80
2021/04/24 04:03:58;;;;;;;15.93;6.57;;;5.30;99.90;;;;;;12380151;28;20085;-80
2021/04/24 04:10:00;;;;;;;15.55;6.47;;;5.40;99.90;;;;;;12389440;28;20108;-79
2021/04/24 04:16:01;;;;;;;16.02;5.90;;;5.50;99.90;;;;;;12389838;28;20129;-79
2021/04/24 04:22:02;;;;;;;13.75;5.70;;;5.50;99.90;;;;;;12403569;28;20102;-80
2021/04/24 04:28:05;;;;;;;11.68;6.20;;;5.50;99.90;;;;;;12404137;28;20042;-80
2021/04/24 04:34:06;;;;;;;12.20;5.30;;;5.40;99.90;;;;;;12399093;28;20119;-80
2021/04/24 04:40:09;;;;;;;11.73;5.60;;;5.40;99.90;;;;;;12381415;28;20100;-79
2021/04/24 04:46:11;;;;;;;16.70;6.65;;;5.50;99.90;;;;;;12396294;28;20058;-79
2021/04/24 04:52:12;;;;;;;12.40;5.68;;;5.60;99.90;;;;;;12404905;28;20475;-80
2021/04/24 04:58:14;;;;;;;18.52;5.97;;;5.70;99.90;;;;;;12386554;28;20138;-80
2021/04/24 05:04:15;;;;;;;12.13;6.10;;;5.80;99.90;;;;;;12368126;28;20209;-80
2021/04/24 05:10:18;;;;;;;14.95;6.43;;;5.90;99.90;;;;;;12389433;28;20042;-80
2021/04/24 05:16:20;;;;;;;14.77;6.63;;;6.00;99.90;;;;;;12387708;28;20049;-80
2021/04/24 05:22:22;;;;;;;12.05;5.40;;;6.00;99.90;;;;;;12385121;28;20046;-80
2021/04/24 05:28:24;;;;;;;9.88;5.45;;;6.20;99.90;;;;;;12392559;28;20573;-80
2021/04/24 05:34:25;;;;;;;16.90;6.45;;;6.60;99.90;;;;;;12393501;28;20120;-80
2021/04/24 05:40:27;;;;;;;13.05;5.57;;;7.20;99.90;;;;;;12387443;28;20522;-80
2021/04/24 05:46:29;;;;;;;12.65;5.85;;;7.60;99.90;;;;;;12390589;28;20137;-80
2021/04/24 05:52:30;;;;;;;10.38;5.90;;;7.90;99.90;;;;;;12400705;28;20041;-80
2021/04/24 05:58:31;;;;;;;9.65;5.75;;;8.30;99.90;;;;;;12401720;28;20173;-80
2021/04/24 06:04:33;;;;;;;14.75;5.90;;;7.80;99.90;;;;;;12392223;28;20046;-80
2021/04/24 06:10:34;;;;;;;12.57;5.95;;;7.50;99.90;;;;;;12393739;28;20066;-80
2021/04/24 06:16:36;;;;;;;11.15;5.60;;;7.50;99.90;;;;;;12395851;28;20050;-80
2021/04/24 06:22:38;;;;;;;16.27;6.13;;;7.30;99.90;;;;;;12391903;28;20038;-80
2021/04/24 06:28:40;;;;;;;13.77;5.13;;;7.30;99.90;;;;;;12406279;28;20120;-80
2021/04/24 06:34:41;;;;;;;10.40;5.18;;;7.10;99.90;;;;;;12394887;28;20113;-80
2021/04/24 06:40:42;;;;;;;12.57;5.70;;;7.30;99.90;;;;;;12391287;28;20046;-80
2021/04/24 06:46:44;;;;;;;12.02;5.22;;;7.40;99.90;;;;;;12398777;28;20475;-80
2021/04/24 06:52:45;;;;;;;15.32;5.40;;;7.20;99.90;;;;;;12397146;28;20046;-80
2021/04/24 06:58:47;;;;;;;11.82;5.57;;;7.60;99.90;;;;;;12398302;28;20553;-80
2021/04/24 07:04:48;;;;;;;13.18;5.20;;;7.80;99.90;;;;;;12385442;28;20183;-80
2021/04/24 07:10:50;;;;;;;19.13;5.40;;;7.80;99.90;;;;;;12391639;28;20047;-79
2021/04/24 07:16:51;;;;;;;13.60;5.25;;;8.00;99.90;;;;;;12395505;28;20121;-80
2021/04/24 07:22:53;;;;;;;12.95;5.60;;;8.30;99.90;;;;;;12395634;28;20414;-80
2021/04/24 07:28:54;;;;;;;9.45;4.97;;;8.50;99.90;;;;;;12400211;28;20133;-79
2021/04/24 07:34:56;;;;;;;10.85;4.80;;;8.80;99.90;;;;;;12391346;28;20121;-79
2021/04/24 07:40:57;;;;;;;12.57;4.75;;;8.70;99.90;;;;;;12387151;28;20088;-79
2021/04/24 07:46:58;;;;;;;10.32;4.65;;;8.40;99.90;;;;;;12409885;28;20061;-79
2021/04/24 07:53:01;;;;;;;13.80;4.10;;;8.50;99.90;;;;;;12388647;28;20076;-79
2021/04/24 07:59:02;;;;;;;7.82;4.35;;;8.40;99.90;;;;;;12392260;28;20388;-79
2021/04/24 08:05:04;;;;;;;7.82;3.13;;;8.70;99.90;;;;;;12386756;28;20124;-79
2021/04/24 08:11:26;;;;;;;9.52;3.85;;;8.80;99.90;;;;;;12405782;28;20042;-79
2021/04/24 08:17:28;;;;;;;8.38;4.45;;;9.00;99.90;;;;;;12391657;28;20100;-79
2021/04/24 08:23:29;;;;;;;8.65;3.80;;;9.60;99.90;;;;;;12397932;28;20050;-79
2021/04/24 08:29:31;;;;;;;7.90;3.90;;;10.00;99.90;;;;;;12391982;28;20133;-79
2021/04/24 08:35:33;;;;;;;10.95;3.83;;;9.40;99.90;;;;;;12390808;28;20041;-79
2021/04/24 08:41:34;;;;;;;11.25;3.65;;;9.30;99.90;;;;;;12394550;28;20038;-79
2021/04/24 08:47:37;;;;;;;9.43;3.58;;;9.20;99.90;;;;;;12393180;28;20054;-79
2021/04/24 08:53:38;;;;;;;12.98;4.63;;;9.70;99.90;;;;;;12387588;28;20070;-79
2021/04/24 08:59:41;;;;;;;12.98;3.85;;;9.90;99.90;;;;;;12388641;28;20089;-78
2021/04/24 09:05:42;;;;;;;10.50;4.05;;;9.70;99.90;;;;;;12391895;28;20095;-80
2021/04/24 09:11:46;;;;;;;7.30;4.03;;;9.60;99.90;;;;;;12385791;28;20600;-78
2021/04/24 09:17:55;;;;;;;11.03;4.47;;;10.10;99.90;;;;;;12415837;28;20046;-79
2021/04/24 09:23:57;;;;;;;9.70;4.32;;;10.50;99.90;;;;;;12453140;28;20039;-79
2021/04/24 09:30:17;;;;;;;9.88;4.25;;;10.50;99.90;;;;;;12432687;28;20050;-79
2021/04/24 09:36:19;;;;;;;10.55;4.97;;;10.70;99.90;;;;;;12447584;28;20042;-79
2021/04/24 09:42:33;;;;;;;10.00;3.88;;;10.50;99.90;;;;;;12391943;28;20439;-79
2021/04/24 09:48:34;;;;;;;9.93;3.87;;;10.20;99.90;;;;;;12404648;28;20244;-79
2021/04/24 09:54:45;;;;;;;10.98;3.97;;;10.10;99.90;;;;;;12384263;28;20824;-79
2021/04/24 10:00:46;;;;;;;12.23;5.15;;;10.70;99.90;;;;;;12391437;28;20053;-78
2021/04/24 10:06:53;;;;;;;9.90;4.18;;;10.60;99.90;;;;;;12403588;28;20078;-79
2021/04/24 10:12:58;;;;;;;15.68;4.90;;;10.10;99.90;;;;;;12386111;28;20106;-78
2021/04/24 10:19:02;;;;;;;9.15;4.93;;;10.00;99.90;;;;;;12396933;28;20050;-79
2021/04/24 10:25:04;;;;;;;6.63;3.80;;;10.50;99.90;;;;;;12382393;28;20155;-79
2021/04/24 10:31:05;;;;;;;8.27;4.28;;;11.20;99.90;;;;;;12388311;28;20150;-79
2021/04/24 10:37:08;;;;;;;7.78;4.18;;;12.20;99.90;;;;;;12396716;28;20053;-79
2021/04/24 10:43:09;;;;;;;9.68;4.30;;;12.30;99.90;;;;;;12389279;28;20121;-79
2021/04/24 10:49:20;;;;;;;8.80;4.57;;;11.50;99.90;;;;;;12389659;28;20061;-79
2021/04/24 10:55:24;;;;;;;10.68;4.28;;;11.30;99.90;;;;;;12394055;28;20101;-79
2021/04/24 11:02:04;;;;;;;9.90;3.72;;;12.00;99.90;;;;;;12388438;28;20511;-79
2021/04/24 11:08:11;;;;;;;6.63;3.72;;;12.70;99.90;;;;;;12400518;28;20077;-79
2021/04/24 11:14:18;;;;;;;8.68;3.40;;;13.20;99.90;;;;;;12403143;28;20133;-78
2021/04/24 11:20:54;;;;;;;9.90;3.50;;;12.40;99.90;;;;;;12387388;28;20062;-78
2021/04/24 11:26:55;;;;;;;12.55;4.20;;;11.90;99.90;;;;;;12404787;28;20070;-79
2021/04/24 11:33:35;;;;;;;5.22;3.10;;;12.20;99.90;;;;;;12393878;28;20046;-79
2021/04/24 11:39:37;;;;;;;13.02;3.75;;;12.00;99.90;;;;;;12402686;28;20093;-79
2021/04/24 11:45:52;;;;;;;8.32;2.95;;;12.40;99.90;;;;;;12381867;28;20062;-79
2021/04/24 11:51:58;;;;;;;;;;;13.20;99.90;;;;;;12386580;28;20069;-82
2021/04/24 11:58:10;;;;;;;7.07;3.67;;;13.10;99.90;;;;;;12394831;28;19949;-79
2021/04/24 12:04:29;;;;;;;8.80;4.10;;;12.50;99.90;;;;;;12383933;28;20058;-79
2021/04/24 12:10:30;;;;;;;7.47;3.70;;;13.00;99.90;;;;;;12404664;28;20567;-79
2021/04/24 12:16:40;;;;;;;8.75;3.50;;;12.90;99.90;;;;;;12389139;28;20054;-79
2021/04/24 12:22:41;;;;;;;7.75;3.80;;;13.40;99.90;;;;;;12383473;28;20075;-78
2021/04/24 12:28:43;;;;;;;8.05;3.67;;;13.10;99.90;;;;;;12391560;28;20379;-79
2021/04/24 12:34:45;;;;;;;10.88;3.83;;;13.60;99.90;;;;;;12379272;28;20987;-80
2021/04/24 12:40:56;;;;;;;9.77;3.92;;;13.80;99.90;;;;;;12385124;28;20164;-79
2021/04/24 12:46:59;;;;;;;9.18;3.78;;;13.30;99.90;;;;;;12388001;28;20057;-79
2021/04/24 12:53:02;;;;;;;10.35;3.75;;;12.90;99.90;;;;;;12387958;28;20046;-79
2021/04/24 12:59:05;;;;;;;8.65;3.13;;;13.20;99.90;;;;;;12398830;28;20080;-80
2021/04/24 13:05:09;;;;;;;17.00;4.30;;;13.90;99.90;;;;;;12389700;28;20057;-81
2021/04/24 13:11:15;;;;;;;13.25;3.28;;;14.40;99.90;;;;;;12390628;28;20041;-79
2021/04/24 13:17:19;;;;;;;7.57;3.17;;;13.60;99.90;;;;;;12388802;28;20058;-79
2021/04/24 13:23:21;;;;;;;10.18;3.78;;;13.20;99.90;;;;;;12389338;28;20166;-79
2021/04/24 13:29:33;;;;;;;7.47;3.20;;;13.80;99.90;;;;;;12384751;28;20103;-80
2021/04/24 13:35:49;;;;;;;9.57;3.20;;;14.30;99.90;;;;;;12388506;28;20047;-79
2021/04/24 13:41:50;;;;;;;7.63;3.13;;;14.10;99.90;;;;;;12382448;28;20090;-79
2021/04/24 13:47:51;;;;;;;9.38;2.65;;;13.70;99.90;;;;;;12381702;28;20407;-79
2021/04/24 13:53:53;;;;;;;8.20;2.60;;;14.10;99.90;;;;;;12395323;28;20074;-80
2021/04/24 13:59:54;;;;;;;9.02;2.35;;;14.80;99.90;;;;;;12388723;28;20081;-79
2021/04/24 14:05:55;;;;;;;8.88;2.40;;;15.50;99.90;;;;;;12382058;28;20049;-79
2021/04/24 14:11:57;;;;;;;11.05;2.88;;;15.90;99.90;;;;;;12397879;28;20073;-79
2021/04/24 14:17:59;;;;;;;10.27;2.60;;;15.10;99.90;;;;;;12395453;28;20049;-79
2021/04/24 14:24:01;;;;;;;13.85;2.60;;;14.20;99.90;;;;;;12405238;28;20475;-80
2021/04/24 14:30:05;;;;;;;7.20;2.63;;;14.30;99.90;;;;;;12392508;28;20134;-79
2021/04/24 14:36:07;;;;;;;8.13;2.70;;;14.90;99.90;;;;;;12387527;28;20074;-80
2021/04/24 14:42:09;;;;;;;9.10;2.28;;;14.10;99.90;;;;;;12386474;28;20064;-79
2021/04/24 14:48:11;;;;;;;8.07;2.28;;;14.40;99.90;;;;;;12390440;28;20049;-79
2021/04/24 14:54:12;;;;;;;5.20;2.05;;;15.00;99.90;;;;;;12403447;28;20145;-80
2021/04/24 15:00:21;;;;;;;8.13;2.20;;;14.90;99.90;;;;;;12384902;28;20486;-79
2021/04/24 15:06:22;;;;;;;10.00;2.53;;;14.90;99.90;;;;;;12385374;28;20137;-80
2021/04/24 15:12:27;;;;;;;4.57;1.80;;;14.90;99.90;;;;;;12389966;28;20043;-79
2021/04/24 15:18:30;;;;;;;8.70;2.08;;;15.20;99.90;;;;;;12388828;28;20141;-79
2021/04/24 15:24:32;;;;;;;8.43;2.22;;;15.80;99.90;;;;;;12393152;28;20050;-80
2021/04/24 15:30:35;;;;;;;5.72;2.22;;;15.40;99.90;;;;;;12396432;28;20057;-80
2021/04/24 15:36:36;;;;;;;11.15;2.58;;;15.40;99.90;;;;;;12394743;28;20057;-80
2021/04/24 15:42:39;;;;;;;9.52;2.08;;;15.90;99.90;;;;;;12391649;28;20043;-80
2021/04/24 15:48:42;;;;;;;8.52;1.98;;;15.80;99.90;;;;;;12420840;28;20181;-80
2021/04/24 15:54:44;;;;;;;7.18;2.38;;;15.40;99.90;;;;;;12436337;28;20045;-80
2021/04/24 16:00:45;;;;;;;8.60;1.77;;;14.80;99.90;;;;;;12433453;28;20038;-80
2021/04/24 16:06:46;;;;;;;6.80;1.90;;;15.00;99.90;;;;;;12427350;28;20041;-80
2021/04/24 16:12:48;;;;;;;6.22;2.00;;;15.00;99.90;;;;;;12386165;28;20119;-79
2021/04/24 16:18:49;;;;;;;6.47;1.83;;;15.40;99.90;;;;;;12388858;28;20054;-80
2021/04/24 16:24:50;;;;;;;7.70;1.90;;;15.30;99.90;;;;;;12406001;28;20533;-80
2021/04/24 16:30:52;;;;;;;6.75;1.70;;;15.60;99.90;;;;;;12381632;28;20046;-80
2021/04/24 16:36:54;;;;;;;4.68;1.80;;;16.30;99.90;;;;;;12385828;28;20065;-80
2021/04/24 16:42:55;;;;;;;5.35;1.80;;;16.10;99.90;;;;;;12389319;28;21271;-80
2021/04/24 16:48:57;;;;;;;5.70;1.58;;;16.50;99.90;;;;;;12397238;28;20046;-79
2021/04/24 16:54:58;;;;;;;3.67;1.20;;;16.80;99.90;;;;;;12382827;28;20073;-80
2021/04/24 17:00:59;;;;;;;8.27;2.60;;;16.60;99.90;;;;;;12383450;28;20042;-80
2021/04/24 17:07:01;;;;;;;5.30;1.15;;;16.30;99.90;;;;;;12385660;28;20041;-80
2021/04/24 17:13:02;;;;;;;7.63;1.30;;;15.20;99.90;;;;;;12382680;28;20066;-81
2021/04/24 17:19:05;;;;;;;3.33;1.13;;;15.00;99.90;;;;;;12386387;28;20088;-80
2021/04/24 17:25:08;;;;;;;5.90;1.70;;;14.70;99.90;;;;;;12386223;28;20046;-80
2021/04/24 17:31:09;;;;;;;8.43;1.48;;;14.60;99.90;;;;;;12391684;28;20050;-80
2021/04/24 17:37:10;;;;;;;6.95;1.30;;;14.30;99.90;;;;;;12381111;28;20509;-80
2021/04/24 17:43:12;;;;;;;8.50;1.80;;;14.00;99.90;;;;;;12387614;28;20045;-79
2021/04/24 17:49:14;;;;;;;2.92;1.05;;;13.60;99.90;;;;;;12383556;28;20057;-79
2021/04/24 17:55:18;;;;;;;4.68;1.20;;;13.20;99.90;;;;;;12386905;28;20319;-80
2021/04/24 18:01:19;;;;;;;6.07;1.38;;;12.50;99.90;;;;;;12399265;28;20062;-81
2021/04/24 18:07:20;;;;;;;2.97;0.95;;;11.50;99.90;;;;;;12384170;28;20487;-80
2021/04/24 18:13:22;;;;;;;3.15;1.00;;;10.80;99.90;;;;;;12399049;28;20705;-80
2021/04/24 18:19:23;;;;;;;5.10;0.90;;;10.50;99.90;;;;;;12375880;28;20061;-80
2021/04/24 18:25:25;;;;;;;5.18;1.13;;;10.10;99.90;;;;;;12401338;28;20054;-80
2021/04/24 18:31:26;;;;;;;7.55;2.25;;;9.90;99.90;;;;;;12385621;28;20836;-80
2021/04/24 18:37:28;;;;;;;4.05;1.00;;;9.70;99.90;;;;;;12387980;28;20042;-80
2021/04/24 18:43:30;;;;;;;5.32;1.30;;;9.40;99.90;;;;;;12393064;28;20068;-80
2021/04/24 18:49:31;;;;;;;4.88;1.27;;;9.20;99.90;;;;;;12386460;28;20545;-80
2021/04/24 18:55:34;;;;;;;5.72;1.75;;;9.00;99.90;;;;;;12388743;28;20137;-80
2021/04/24 19:01:36;;;;;;;3.65;1.20;;;8.80;99.90;;;;;;12390278;28;20080;-79
2021/04/24 19:07:38;;;;;;;6.60;2.40;;;8.50;99.90;;;;;;12388861;28;20186;-80
2021/04/24 19:13:39;;;;;;;7.00;1.50;;;8.50;99.90;;;;;;12389534;28;20153;-79
2021/04/24 19:19:41;;;;;;;4.57;1.00;;;8.20;99.90;;;;;;12389781;28;20082;-79
2021/04/24 19:25:43;;;;;;;5.07;1.33;;;8.10;99.90;;;;;;12402579;28;20531;-79
2021/04/24 19:31:44;;;;;;;5.32;1.42;;;7.90;99.90;;;;;;12392356;28;20058;-79
2021/04/24 19:37:48;;;;;;;5.90;1.52;;;7.70;99.90;;;;;;12391859;28;20339;-79
2021/04/24 19:43:50;;;;;;;6.85;1.20;;;7.70;99.90;;;;;;12392841;28;20521;-79
2021/04/24 19:49:54;;;;;;;4.67;1.37;;;7.50;99.90;;;;;;12391516;28;20096;-79
2021/04/24 19:55:55;;;;;;;5.50;1.60;;;7.50;99.90;;;;;;12388146;28;20043;-79
2021/04/24 20:01:56;;;;;;;7.10;1.60;;;7.30;99.90;;;;;;12386790;28;20076;-79
2021/04/24 20:07:59;;;;;;;7.25;2.03;;;7.20;99.90;;;;;;12392834;28;20140;-79
2021/04/24 20:14:00;;;;;;;9.60;3.05;;;7.10;99.90;;;;;;12391144;28;20130;-79
2021/04/24 20:20:04;;;;;;;11.35;2.45;;;7.00;99.90;;;;;;12384023;28;20154;-79
2021/04/24 20:26:05;;;;;;;4.13;1.30;;;6.90;99.90;;;;;;12387212;28;20534;-78
2021/04/24 20:32:07;;;;;;;4.97;1.20;;;6.80;99.90;;;;;;12379593;28;20149;-79
2021/04/24 20:38:08;;;;;;;7.07;1.90;;;6.60;99.90;;;;;;12377808;28;20057;-79
2021/04/24 20:44:11;;;;;;;6.82;1.58;;;6.50;99.90;;;;;;12377509;28;20542;-79
2021/04/24 20:50:13;;;;;;;6.80;1.42;;;6.50;99.90;;;;;;12385254;28;20787;-79
2021/04/24 20:56:14;;;;;;;8.60;1.58;;;6.40;99.90;;;;;;12381490;28;20134;-79
2021/04/24 21:02:16;;;;;;;4.05;1.50;;;6.30;99.90;;;;;;12384479;28;20050;-79
2021/04/24 21:08:18;;;;;;;5.30;1.60;;;6.30;99.90;;;;;;12387084;28;20466;-79
2021/04/24 21:14:19;;;;;;;5.35;1.80;;;6.10;99.90;;;;;;12384242;28;20775;-79
2021/04/24 21:20:21;;;;;;;9.88;1.90;;;6.10;99.90;;;;;;12379916;28;20244;-78
2021/04/24 21:26:22;;;;;;;9.57;2.60;;;6.00;99.90;;;;;;12405723;28;20550;-79
2021/04/24 21:32:23;;;;;;;7.32;2.80;;;5.80;99.90;;;;;;12386664;28;20125;-79
2021/04/24 21:38:25;;;;;;;8.82;3.25;;;5.90;99.90;;;;;;12385129;28;20468;-78
2021/04/24 21:44:26;;;;;;;11.20;3.30;;;5.70;99.90;;;;;;12375927;28;20042;-79
2021/04/24 21:50:28;;;;;;;8.85;3.13;;;5.60;99.90;;;;;;12384200;28;20058;-79
2021/04/24 21:56:29;;;;;;;9.48;3.05;;;5.60;99.90;;;;;;12383799;28;20080;-78
2021/04/24 22:02:30;;;;;;;10.73;3.25;;;5.40;99.90;;;;;;12385311;28;20154;-79
2021/04/24 22:08:32;;;;;;;5.88;3.00;;;5.40;99.90;;;;;;12378076;28;20049;-79
2021/04/24 22:14:33;;;;;;;8.23;2.85;;;5.40;99.90;;;;;;12383561;28;20080;-79
2021/04/24 22:20:35;;;;;;;11.05;3.88;;;5.20;99.90;;;;;;12385366;28;20091;-79
2021/04/24 22:26:37;;;;;;;10.63;3.28;;;5.20;99.90;;;;;;12384428;28;20228;-79
2021/04/24 22:32:38;;;;;;;9.10;3.53;;;5.10;99.90;;;;;;12405931;28;20101;-79
2021/04/24 22:38:40;;;;;;;11.35;3.30;;;5.00;99.90;;;;;;12393968;28;20057;-79
2021/04/24 22:44:41;;;;;;;10.32;3.65;;;5.10;99.90;;;;;;12391772;28;20133;-78
2021/04/24 22:50:43;;;;;;;9.25;3.83;;;5.10;99.90;;;;;;12390820;28;20490;-79
2021/04/24 22:56:44;;;;;;;11.15;3.67;;;5.00;99.90;;;;;;12395203;28;20046;-79
2021/04/24 23:02:45;;;;;;;9.35;2.90;;;4.90;99.90;;;;;;12386818;28;20449;-79
2021/04/24 23:08:47;;;;;;;12.10;4.05;;;4.80;99.90;;;;;;12389184;28;20407;-79
2021/04/24 23:14:48;;;;;;;10.10;3.63;;;4.60;99.90;;;;;;12389322;28;20502;-79
2021/04/24 23:20:49;;;;;;;11.27;4.95;;;4.70;99.90;;;;;;12387719;28;20065;-79
2021/04/24 23:26:51;;;;;;;13.00;4.07;;;4.50;99.90;;;;;;12381258;28;20789;-80
2021/04/24 23:32:52;;;;;;;9.30;3.95;;;4.50;99.90;;;;;;12392789;28;20192;-80
2021/04/24 23:38:54;;;;;;;9.63;4.00;;;4.40;99.90;;;;;;12389059;28;20073;-79
2021/04/24 23:44:56;;;;;;;11.55;3.45;;;4.30;99.90;;;;;;12389143;28;20085;-80
2021/04/24 23:50:57;;;;;;;13.95;4.28;;;4.30;99.90;;;;;;12406734;28;20051;-79
2021/04/24 23:56:58;;;;;;;9.20;3.45;;;4.30;99.90;;;;;;12387170;28;20128;-79
